Time;durP1;ratioP1;P1;durP2;ratioP2;P2;SDS_P1;SDS_P2;PMS_P1;PMS_P2;Temp;Humidity;BMP_temperature;BMP_pressure;BME280_temperature;BME280_humidity;BME280_pressure;Samples;Min_cycle;Max_cycle;Signal;HPM_P1;HPM_P2
2021/10/26 00:03:35;;;;;;;2.05;1.20;;;20.60;37.20;20.70;94336.00;;;;10391746;28;45193;-61
2021/10/26 00:08:36;;;;;;;2.30;1.23;;;20.60;37.20;20.70;94342.00;;;;10391766;28;45236;-62
2021/10/26 00:13:37;;;;;;;1.10;0.88;;;20.60;37.30;20.70;94344.00;;;;10392139;28;45345;-61
2021/10/26 00:18:38;;;;;;;1.80;1.13;;;20.60;37.20;20.70;94336.00;;;;10392470;28;45148;-63
2021/10/26 00:23:38;;;;;;;1.40;0.88;;;20.60;37.20;20.70;94345.00;;;;10390821;28;45363;-61
2021/10/26 00:28:39;;;;;;;1.55;1.23;;;20.60;37.20;20.70;94345.00;;;;10390999;28;45609;-61
2021/10/26 00:33:40;;;;;;;1.80;1.13;;;20.60;37.20;20.70;94342.00;;;;10390481;28;46161;-61
2021/10/26 00:38:41;;;;;;;2.40;1.10;;;20.60;37.30;20.70;94359.00;;;;10390466;28;46457;-61
2021/10/26 00:43:42;;;;;;;1.40;1.00;;;20.60;37.30;20.70;94347.00;;;;10391430;28;46290;-61
2021/10/26 00:48:43;;;;;;;2.72;1.15;;;20.60;37.30;20.70;94343.00;;;;10393864;28;45754;-61
2021/10/26 00:53:44;;;;;;;1.80;1.20;;;20.60;37.40;20.70;94343.00;;;;10397255;28;45594;-62
2021/10/26 00:58:45;;;;;;;2.15;1.20;;;20.50;37.30;20.70;94346.00;;;;10395875;28;46399;-63
2021/10/26 01:03:45;;;;;;;1.90;1.13;;;20.50;37.30;20.70;94339.00;;;;10392887;28;45192;-61
2021/10/26 01:08:49;;;;;;;1.73;1.00;;;20.50;37.30;20.70;94349.00;;;;10397146;28;45794;-61
2021/10/26 01:13:50;;;;;;;1.52;1.00;;;20.50;37.30;20.70;94348.00;;;;10396690;28;46290;-61
2021/10/26 01:18:52;;;;;;;1.55;1.02;;;20.50;37.30;20.70;94344.00;;;;10396522;28;46971;-62
2021/10/26 01:23:53;;;;;;;1.85;0.98;;;20.50;37.30;20.70;94341.00;;;;10396762;28;46280;-60
2021/10/26 01:28:54;;;;;;;1.30;0.88;;;20.50;37.30;20.70;94345.00;;;;10396594;28;46459;-61
2021/10/26 01:33:55;;;;;;;1.50;1.10;;;20.50;37.40;20.70;94349.00;;;;10395838;28;45333;-62
2021/10/26 01:38:55;;;;;;;1.45;0.90;;;20.50;37.30;20.60;94348.00;;;;10412149;28;48110;-61
2021/10/26 01:43:56;;;;;;;1.98;1.23;;;20.50;37.30;20.60;94344.00;;;;10396486;28;45216;-61
2021/10/26 01:48:57;;;;;;;1.08;0.90;;;20.50;37.40;20.60;94336.00;;;;10395129;28;46342;-61
2021/10/26 01:53:57;;;;;;;1.35;1.10;;;20.50;37.30;20.60;94331.00;;;;10412170;28;47335;-60
2021/10/26 01:58:58;;;;;;;1.13;1.02;;;20.50;37.40;20.60;94346.00;;;;10396021;28;45319;-61
2021/10/26 02:03:59;;;;;;;1.85;1.10;;;20.50;37.40;20.60;94344.00;;;;10396436;28;45471;-60
2021/10/26 02:09:00;;;;;;;1.58;0.93;;;20.50;37.40;20.60;94337.00;;;;10395083;28;45404;-61
2021/10/26 02:14:01;;;;;;;1.90;1.08;;;20.50;37.40;20.60;94361.00;;;;10395658;28;45187;-60
2021/10/26 02:19:01;;;;;;;1.48;1.05;;;20.50;37.40;20.60;94370.00;;;;10394524;28;45597;-62
2021/10/26 02:24:02;;;;;;;2.13;1.00;;;20.50;37.50;20.60;94371.00;;;;10394565;28;45287;-62
2021/10/26 02:29:04;;;;;;;1.45;1.00;;;20.50;37.50;20.60;94365.00;;;;10394223;28;47069;-60
2021/10/26 02:34:05;;;;;;;1.70;1.10;;;20.50;37.50;20.60;94356.00;;;;10394130;28;45319;-62
2021/10/26 02:39:06;;;;;;;1.48;1.10;;;20.50;37.50;20.60;94359.00;;;;10394993;28;45509;-61
2021/10/26 02:44:07;;;;;;;1.35;1.00;;;20.50;37.50;20.60;94369.00;;;;10435318;22;45579;-62
2021/10/26 02:49:09;;;;;;;1.10;0.82;;;20.50;37.50;20.60;94373.00;;;;10417301;28;48354;-62
2021/10/26 02:54:10;;;;;;;1.90;0.95;;;20.50;37.50;20.60;94349.00;;;;10418596;28;47070;-62
2021/10/26 02:59:10;;;;;;;1.10;1.00;;;20.50;37.50;20.60;94355.00;;;;10418840;28;47194;-60
2021/10/26 03:04:11;;;;;;;1.05;0.82;;;20.50;37.50;20.60;94362.00;;;;10436402;28;46410;-63
2021/10/26 03:09:12;;;;;;;1.70;0.90;;;20.50;37.60;20.60;94358.00;;;;10435758;28;45380;-61
2021/10/26 03:14:13;;;;;;;1.17;0.95;;;20.50;37.60;20.60;94349.00;;;;10434185;28;45136;-61
2021/10/26 03:19:14;;;;;;;1.33;1.00;;;20.50;37.60;20.60;94363.00;;;;10434045;28;46211;-63
2021/10/26 03:24:15;;;;;;;1.25;0.90;;;20.50;37.60;20.60;94353.00;;;;10435415;28;45387;-61
2021/10/26 03:29:15;;;;;;;1.73;1.00;;;20.50;37.60;20.60;94366.00;;;;10435099;28;46538;-61
2021/10/26 03:34:16;;;;;;;2.55;1.10;;;20.40;37.60;20.60;94354.00;;;;10433935;28;45527;-61
2021/10/26 03:39:17;;;;;;;1.20;0.90;;;20.50;37.70;20.60;94371.00;;;;10432658;28;45635;-62
2021/10/26 03:44:17;;;;;;;1.65;0.95;;;20.50;37.60;20.60;94349.00;;;;10431712;28;46958;-62
2021/10/26 03:49:18;;;;;;;1.20;0.82;;;20.50;37.70;20.60;94375.00;;;;10433497;28;46271;-61
2021/10/26 03:54:19;;;;;;;1.48;0.90;;;20.40;37.60;20.60;94358.00;;;;10432234;28;45303;-62
2021/10/26 03:59:19;;;;;;;1.00;0.80;;;20.50;37.70;20.60;94366.00;;;;10432007;28;45593;-62
2021/10/26 04:04:20;;;;;;;1.40;0.90;;;20.50;37.70;20.60;94372.00;;;;10432176;28;45361;-62
2021/10/26 04:09:26;;;;;;;1.40;0.90;;;20.40;37.70;20.60;94384.00;;;;10431425;28;45344;-62
2021/10/26 04:14:27;;;;;;;1.75;0.80;;;20.40;37.70;20.50;94367.00;;;;10431996;28;45316;-62
2021/10/26 04:19:27;;;;;;;1.63;0.95;;;20.40;37.80;20.50;94375.00;;;;10431340;28;46191;-62
2021/10/26 04:24:28;;;;;;;1.70;1.10;;;20.40;37.70;20.50;94397.00;;;;10435889;28;48670;-61
2021/10/26 04:29:28;;;;;;;1.08;0.70;;;20.40;37.80;20.50;94382.00;;;;10440322;28;46450;-62
2021/10/26 04:34:29;;;;;;;1.25;0.90;;;20.40;37.80;20.50;94396.00;;;;10439667;28;45986;-63
2021/10/26 04:39:30;;;;;;;2.03;0.77;;;20.40;37.80;20.50;94385.00;;;;10422415;28;47354;-62
2021/10/26 04:44:31;;;;;;;0.98;0.70;;;20.40;37.80;20.50;94394.00;;;;10422792;28;46793;-61
2021/10/26 04:49:32;;;;;;;1.17;0.80;;;20.40;37.80;20.50;94382.00;;;;10441075;28;45427;-61
2021/10/26 04:54:33;;;;;;;0.80;0.80;;;20.40;37.80;20.50;94402.00;;;;10438839;28;45320;-62
2021/10/26 04:59:33;;;;;;;1.77;0.88;;;20.40;37.90;20.50;94401.00;;;;10439279;28;45165;-61
2021/10/26 05:04:34;;;;;;;1.55;0.73;;;20.40;37.80;20.50;94408.00;;;;10439888;28;45438;-61
2021/10/26 05:09:35;;;;;;;1.35;0.90;;;20.40;37.90;20.50;94400.00;;;;10439327;28;45231;-62
2021/10/26 05:14:35;;;;;;;0.93;0.65;;;20.40;37.80;20.50;94391.00;;;;10438332;28;47192;-61
2021/10/26 05:19:37;;;;;;;0.60;0.60;;;20.40;37.90;20.50;94412.00;;;;10420204;28;47943;-62
2021/10/26 05:24:37;;;;;;;1.35;0.73;;;20.40;37.90;20.50;94416.00;;;;10438791;28;45667;-62
2021/10/26 05:29:40;;;;;;;1.13;0.85;;;20.40;37.90;20.50;94408.00;;;;10438220;28;46471;-61
2021/10/26 05:34:41;;;;;;;0.82;0.65;;;20.40;37.90;20.50;94420.00;;;;10436492;28;45412;-62
2021/10/26 05:39:43;;;;;;;0.95;0.70;;;20.40;37.90;20.50;94413.00;;;;10419617;28;47115;-62
2021/10/26 05:44:44;;;;;;;1.42;0.77;;;20.40;38.60;20.50;94419.00;;;;10437594;28;45916;-61
2021/10/26 05:49:45;;;;;;;0.90;0.70;;;20.40;37.90;20.50;94424.00;;;;10418999;28;48163;-61
2021/10/26 05:54:45;;;;;;;1.75;0.80;;;20.40;37.90;20.50;94427.00;;;;10436004;28;45853;-61
2021/10/26 05:59:46;;;;;;;1.63;0.80;;;20.40;38.10;20.50;94435.00;;;;10436422;28;45871;-62
2021/10/26 06:04:47;;;;;;;1.30;0.70;;;20.40;38.10;20.50;94453.00;;;;10436201;28;47512;-62
2021/10/26 06:09:47;;;;;;;1.58;0.90;;;20.40;38.10;20.50;94454.00;;;;10435903;28;47185;-61
2021/10/26 06:14:48;;;;;;;1.02;0.77;;;20.40;38.00;20.50;94454.00;;;;10431362;28;47462;-61
2021/10/26 06:19:49;;;;;;;1.75;0.90;;;20.40;37.90;20.50;94464.00;;;;10436763;28;45507;-63
2021/10/26 06:24:49;;;;;;;1.55;0.77;;;20.40;37.90;20.50;94457.00;;;;10419258;28;46657;-63
2021/10/26 06:29:50;;;;;;;2.08;0.90;;;20.40;37.90;20.50;94471.00;;;;10393814;28;45502;-63
2021/10/26 06:34:51;;;;;;;2.38;0.90;;;20.40;37.90;20.50;94480.00;;;;10394189;28;46591;-62
2021/10/26 06:39:54;;;;;;;1.65;0.70;;;20.40;37.90;20.50;94481.00;;;;10391804;28;46015;-61
2021/10/26 06:44:55;;;;;;;1.35;0.70;;;20.40;37.90;20.50;94484.00;;;;10390602;28;45327;-63
2021/10/26 06:49:56;;;;;;;1.20;0.75;;;20.30;37.90;20.50;94494.00;;;;10395171;28;46266;-64
2021/10/26 06:54:57;;;;;;;4.05;0.80;;;20.40;37.90;20.50;94502.00;;;;10393476;28;45502;-61
2021/10/26 06:59:58;;;;;;;1.40;0.85;;;20.40;37.90;20.50;94498.00;;;;10393543;28;46903;-58
2021/10/26 07:05:01;;;;;;;2.08;0.80;;;20.40;37.90;20.50;94515.00;;;;10376941;28;48373;-60
2021/10/26 07:10:04;;;;;;;1.77;0.73;;;20.30;37.90;20.50;94513.00;;;;10395087;28;45210;-59
2021/10/26 07:15:08;;;;;;;1.25;0.70;;;20.40;37.90;20.50;94519.00;;;;10394182;28;46674;-59
2021/10/26 07:20:12;;;;;;;1.20;0.70;;;20.30;37.90;20.50;94520.00;;;;10375856;28;47966;-59
2021/10/26 07:25:13;;;;;;;1.35;0.70;;;20.30;37.90;20.50;94530.00;;;;10392126;28;48319;-59
2021/10/26 07:30:14;;;;;;;1.08;0.73;;;20.30;37.90;20.50;94531.00;;;;10392645;28;45947;-61
2021/10/26 07:35:15;;;;;;;0.98;0.60;;;20.30;37.90;20.50;94534.00;;;;10392799;28;45434;-59
2021/10/26 07:40:17;;;;;;;1.38;0.70;;;20.40;37.90;20.50;94535.00;;;;10392657;28;45196;-58
2021/10/26 07:45:17;;;;;;;2.85;0.60;;;20.30;37.90;20.40;94534.00;;;;10390871;28;46241;-59
2021/10/26 07:50:18;;;;;;;1.88;0.57;;;20.30;37.90;20.50;94552.00;;;;10391044;28;45609;-59
2021/10/26 07:55:20;;;;;;;0.60;0.40;;;20.30;37.90;20.50;94562.00;;;;10420253;28;46287;-59
2021/10/26 08:00:21;;;;;;;1.20;0.63;;;20.30;37.90;20.50;94560.00;;;;10433310;28;46510;-60
2021/10/26 08:05:21;;;;;;;0.93;0.57;;;20.30;37.90;20.40;94561.00;;;;10416179;28;46929;-59
2021/10/26 08:10:23;;;;;;;0.95;0.60;;;20.30;37.90;20.40;94565.00;;;;10433062;28;45213;-59
2021/10/26 08:15:24;;;;;;;0.47;0.45;;;20.30;37.90;20.40;94566.00;;;;10433256;28;45479;-59
2021/10/26 08:20:24;;;;;;;1.00;0.50;;;20.30;37.90;20.50;94560.00;;;;10415703;28;46616;-61
2021/10/26 08:25:31;;;;;;;1.55;0.60;;;20.30;37.90;20.50;94577.00;;;;10431910;28;46300;-59
2021/10/26 08:35:35;;;;;;;1.85;0.70;;;20.30;37.90;20.40;94577.00;;;;10432078;28;45817;-59
2021/10/26 08:40:46;;;;;;;1.88;0.70;;;20.30;37.90;20.40;94577.00;;;;10430856;28;45545;-59
2021/10/26 08:45:48;;;;;;;0.70;0.50;;;20.30;37.90;20.40;94571.00;;;;10436642;22;47056;-60
2021/10/26 08:50:57;;;;;;;1.42;0.70;;;20.40;38.00;20.40;94581.00;;;;10411437;28;45473;-60
2021/10/26 08:56:02;;;;;;;1.00;0.70;;;20.30;37.90;20.40;94587.00;;;;10431602;28;45195;-61
2021/10/26 09:01:05;;;;;;;0.73;0.60;;;20.30;37.90;20.40;94587.00;;;;10431643;28;46153;-61
2021/10/26 09:06:08;;;;;;;0.45;0.43;;;20.30;38.00;20.40;94586.00;;;;10431275;28;45566;-61
2021/10/26 09:11:38;;;;;;;1.27;0.70;;;20.30;38.00;20.40;94584.00;;;;10436308;28;47217;-60
2021/10/26 09:17:00;;;;;;;1.15;0.70;;;20.30;38.00;20.40;94580.00;;;;10439811;28;46124;-61
2021/10/26 09:22:04;;;;;;;1.60;0.70;;;20.30;38.00;20.40;94579.00;;;;10437828;28;47089;-60
2021/10/26 09:27:05;;;;;;;0.73;0.60;;;20.30;38.00;20.40;94566.00;;;;10437500;28;45360;-62
2021/10/26 09:32:08;;;;;;;1.45;0.75;;;20.20;38.00;20.40;94575.00;;;;10438221;28;45534;-62
2021/10/26 09:37:10;;;;;;;0.90;0.55;;;20.30;38.00;20.40;94563.00;;;;10437277;28;48257;-61
2021/10/26 09:42:13;;;;;;;1.40;0.60;;;20.20;38.00;20.40;94582.00;;;;10420410;28;47459;-60
2021/10/26 09:47:36;;;;;;;1.63;0.57;;;20.30;38.10;20.40;94580.00;;;;10438664;28;45309;-60
2021/10/26 09:52:44;;;;;;;1.23;0.70;;;20.30;38.10;20.40;94580.00;;;;10439458;28;45447;-62
2021/10/26 09:57:52;;;;;;;0.75;0.47;;;20.20;38.00;20.40;94568.00;;;;10439344;28;46340;-61
2021/10/26 10:03:16;;;;;;;0.93;0.55;;;20.20;38.00;20.40;94573.00;;;;10437223;28;46037;-61
2021/10/26 10:08:34;;;;;;;0.80;0.50;;;20.30;38.10;20.40;94567.00;;;;10436540;28;46370;-61
2021/10/26 10:13:38;;;;;;;1.88;0.80;;;20.30;38.10;20.40;94588.00;;;;10420251;28;47282;-60
2021/10/26 10:18:43;;;;;;;0.60;0.50;;;20.20;38.00;20.40;94580.00;;;;10435644;28;46521;-60
2021/10/26 10:23:50;;;;;;;1.58;0.65;;;20.30;38.10;20.40;94585.00;;;;10435821;28;45140;-61
2021/10/26 10:28:52;;;;;;;1.35;0.68;;;20.30;38.70;20.40;94576.00;;;;10436375;28;45500;-62
2021/10/26 10:33:54;;;;;;;0.75;0.63;;;20.20;38.00;20.40;94585.00;;;;10419015;28;47224;-60
2021/10/26 10:39:07;;;;;;;0.80;0.60;;;20.30;38.10;20.40;94574.00;;;;10435772;28;45123;-60
2021/10/26 10:44:35;;;;;;;1.15;0.63;;;20.20;38.00;20.40;94572.00;;;;10435780;28;46678;-60
2021/10/26 10:49:44;;;;;;;1.05;0.60;;;20.30;38.10;20.40;94562.00;;;;10435111;28;45224;-61
2021/10/26 10:54:53;;;;;;;0.82;0.50;;;20.20;38.00;20.40;94559.00;;;;10436250;28;45112;-60
2021/10/26 11:00:00;;;;;;;0.93;0.70;;;20.30;38.20;20.40;94566.00;;;;10435030;28;45245;-61
2021/10/26 11:05:04;;;;;;;0.98;0.70;;;20.20;38.00;20.40;94562.00;;;;10433320;28;45432;-61
2021/10/26 11:10:05;;;;;;;1.02;0.70;;;20.20;38.10;20.40;94565.00;;;;10435136;28;45111;-61
2021/10/26 11:15:10;;;;;;;0.93;0.70;;;20.30;38.10;20.40;94565.00;;;;10433193;28;45622;-62
2021/10/26 11:20:26;;;;;;;0.90;0.60;;;20.20;38.10;20.40;94549.00;;;;10416590;28;47968;-61
2021/10/26 11:25:38;;;;;;;0.95;0.70;;;20.20;38.10;20.40;94551.00;;;;10434665;28;45377;-61
2021/10/26 11:30:43;;;;;;;0.85;0.60;;;20.20;38.10;20.40;94554.00;;;;10431836;28;46633;-61
2021/10/26 11:35:49;;;;;;;1.30;0.60;;;20.30;38.20;20.40;94555.00;;;;10434092;28;45296;-61
2021/10/26 11:41:03;;;;;;;4.70;0.80;;;20.20;38.10;20.40;94555.00;;;;10432732;28;47020;-61
2021/10/26 11:46:04;;;;;;;0.47;0.47;;;20.20;38.10;20.40;94540.00;;;;10433537;28;46048;-61
2021/10/26 11:51:58;;;;;;;0.88;0.63;;;20.20;38.10;20.40;94545.00;;;;10434386;28;45292;-61
2021/10/26 11:57:04;;;;;;;1.38;0.50;;;20.30;38.30;20.40;94551.00;;;;10415335;28;47317;-61
2021/10/26 12:02:14;;;;;;;1.00;0.60;;;20.30;38.20;20.40;94541.00;;;;10432212;28;47867;-61
2021/10/26 12:07:19;;;;;;;1.80;0.60;;;20.20;38.10;20.30;94548.00;;;;10431853;28;45360;-61
2021/10/26 12:12:24;;;;;;;1.15;0.70;;;20.20;38.20;20.40;94548.00;;;;10433782;28;46466;-61
2021/10/26 12:17:33;;;;;;;0.80;0.57;;;20.30;38.20;20.40;94540.00;;;;10431747;28;45255;-61
2021/10/26 12:22:46;;;;;;;0.93;0.60;;;20.20;38.20;20.40;94529.00;;;;10431874;28;45435;-61
2021/10/26 12:28:09;;;;;;;0.70;0.50;;;20.20;38.20;20.40;94533.00;;;;10414435;28;46861;-61
2021/10/26 12:33:16;;;;;;;0.70;0.70;;;20.30;38.20;20.40;94535.00;;;;10431536;28;45164;-60
2021/10/26 12:38:35;;;;;;;0.80;0.50;;;20.30;38.20;20.40;94538.00;;;;10432443;28;45559;-61
2021/10/26 12:43:36;;;;;;;0.85;0.60;;;20.30;38.30;20.40;94520.00;;;;10433435;28;45415;-63
2021/10/26 12:48:37;;;;;;;0.80;0.68;;;20.20;38.10;20.40;94526.00;;;;10440027;28;45299;-60
2021/10/26 12:53:42;;;;;;;1.13;0.70;;;20.20;38.10;20.40;94521.00;;;;10422685;28;47376;-60
2021/10/26 12:59:06;;;;;;;0.90;0.57;;;20.30;38.20;20.40;94524.00;;;;10439077;28;47016;-61
2021/10/26 13:04:16;;;;;;;0.65;0.50;;;20.20;38.20;20.30;94519.00;;;;10439986;28;46620;-64
2021/10/26 13:09:50;;;;;;;1.52;0.60;;;20.30;38.30;20.30;94520.00;;;;10440169;28;46506;-61
2021/10/26 13:14:54;;;;;;;1.05;0.60;;;20.20;38.20;20.40;94525.00;;;;10436822;28;46981;-60
2021/10/26 13:20:47;;;;;;;0.82;0.60;;;20.20;38.30;20.40;94515.00;;;;10438037;28;45431;-62
2021/10/26 13:25:56;;;;;;;0.40;0.40;;;20.20;38.30;20.30;94498.00;;;;10429566;28;45197;-60
2021/10/26 13:31:03;;;;;;;0.68;0.50;;;20.30;38.40;20.40;94520.00;;;;10437768;28;46019;-62
2021/10/26 13:36:10;;;;;;;0.93;0.50;;;20.20;38.30;20.40;94515.00;;;;10437308;28;46144;-61
2021/10/26 13:41:14;;;;;;;0.57;0.50;;;20.30;38.40;20.40;94508.00;;;;10436705;28;46435;-60
2021/10/26 13:46:20;;;;;;;1.67;0.70;;;20.20;38.30;20.40;94514.00;;;;10436661;28;45180;-61
2021/10/26 13:51:22;;;;;;;1.63;0.60;;;20.30;38.40;20.40;94501.00;;;;10420678;28;47241;-61
2021/10/26 13:56:23;;;;;;;1.00;0.80;;;20.30;38.40;20.40;94517.00;;;;10419409;28;47859;-61
2021/10/26 14:01:23;;;;;;;1.10;0.50;;;20.20;38.30;20.40;94508.00;;;;10420145;28;48348;-60
2021/10/26 14:06:24;;;;;;;0.85;0.65;;;20.20;38.30;20.30;94505.00;;;;10419124;28;46965;-61
2021/10/26 14:11:26;;;;;;;0.77;0.47;;;20.30;38.40;20.40;94510.00;;;;10438041;28;45372;-60
2021/10/26 14:16:26;;;;;;;0.88;0.50;;;20.20;38.40;20.30;94505.00;;;;10436836;28;45124;-61
2021/10/26 14:21:29;;;;;;;0.73;0.52;;;20.20;38.40;20.40;94509.00;;;;10437727;28;45281;-61
2021/10/26 14:26:30;;;;;;;0.47;0.40;;;20.30;38.50;20.30;94512.00;;;;10419371;28;46947;-61
2021/10/26 14:31:31;;;;;;;1.30;0.47;;;20.20;38.40;20.30;94505.00;;;;10431855;28;48308;-61
2021/10/26 14:36:53;;;;;;;1.35;0.60;;;20.30;38.50;20.30;94517.00;;;;10407479;28;46085;-61
2021/10/26 14:57:37;;;;;;;0.90;0.55;;;20.20;38.40;20.30;94533.00;;;;10458910;28;45283;-61
2021/10/26 15:02:38;;;;;;;0.57;0.40;;;20.20;38.40;20.30;94534.00;;;;10464758;28;46474;-61
2021/10/26 15:07:39;;;;;;;0.77;0.50;;;20.20;38.50;20.40;94534.00;;;;10415694;28;47763;-61
2021/10/26 15:12:43;;;;;;;0.65;0.52;;;20.20;38.50;20.30;94528.00;;;;10430437;28;45448;-61
2021/10/26 15:17:45;;;;;;;0.57;0.50;;;20.30;38.50;20.30;94543.00;;;;10429275;28;45164;-61
2021/10/26 15:22:54;;;;;;;0.93;0.30;;;20.20;38.50;20.30;94546.00;;;;10467518;28;45610;-61
2021/10/26 15:33:28;;;;;;;2.00;0.52;;;20.20;38.70;20.30;94536.00;;;;10475305;28;45942;-62
2021/10/26 15:38:30;;;;;;;1.88;0.60;;;20.20;38.80;20.40;94543.00;;;;10470631;28;47533;-65
2021/10/26 15:43:32;;;;;;;1.38;0.32;;;20.20;39.20;20.40;94543.00;;;;10457960;28;48045;-63
2021/10/26 15:48:33;;;;;;;0.98;0.50;;;20.20;39.50;20.40;94543.00;;;;10444886;28;47330;-68
2021/10/26 15:53:34;;;;;;;2.70;0.60;;;20.30;40.10;20.40;94536.00;;;;10416905;28;47084;-66
2021/10/26 15:58:36;;;;;;;3.40;1.00;;;20.30;40.30;20.40;94546.00;;;;10433470;28;46898;-66
2021/10/26 16:03:40;;;;;;;1.92;0.65;;;20.30;40.10;20.40;94544.00;;;;10416476;28;48165;-66
2021/10/26 16:08:41;;;;;;;1.33;0.60;;;20.30;40.50;20.50;94562.00;;;;10432917;28;45073;-64
2021/10/26 16:13:46;;;;;;;2.85;0.70;;;20.30;40.40;20.50;94559.00;;;;10416122;28;47358;-65
2021/10/26 16:18:47;;;;;;;2.03;0.57;;;20.40;40.10;20.50;94559.00;;;;10455532;28;47986;-65
2021/10/26 16:23:47;;;;;;;1.77;0.77;;;20.40;40.40;20.50;94577.00;;;;10461159;28;47035;-64
2021/10/26 16:28:48;;;;;;;1.38;0.70;;;20.40;40.30;20.50;94577.00;;;;10430058;28;47118;-67
2021/10/26 16:33:59;;;;;;;1.85;0.50;;;20.40;40.50;20.40;94584.00;;;;10434604;28;47339;-67
2021/10/26 16:39:06;;;;;;;2.25;0.52;;;20.40;39.80;20.40;94590.00;;;;10447389;28;45366;-59
2021/10/26 16:49:08;;;;;;;2.95;0.50;;;20.20;40.60;20.30;94594.00;;;;10460703;28;45318;-62
2021/10/26 16:54:09;;;;;;;1.77;0.75;;;20.10;41.00;20.30;94594.00;;;;10461839;28;46312;-61
2021/10/26 16:59:09;;;;;;;3.67;0.60;;;20.10;41.10;20.20;94619.00;;;;10427779;28;47907;-62
2021/10/26 17:04:10;;;;;;;2.85;0.70;;;20.00;41.10;20.20;94622.00;;;;10445872;28;45414;-62
2021/10/26 17:09:11;;;;;;;4.10;0.85;;;20.00;41.10;20.20;94623.00;;;;10428643;28;47181;-61
2021/10/26 17:14:12;;;;;;;3.78;0.90;;;20.00;41.00;20.20;94641.00;;;;10445304;28;45506;-62
2021/10/26 17:19:13;;;;;;;3.30;0.90;;;19.90;40.90;20.20;94646.00;;;;10446402;28;45354;-61
2021/10/26 17:24:13;;;;;;;1.13;0.60;;;19.90;40.90;20.20;94670.00;;;;10427728;28;48291;-62
2021/10/26 17:29:14;;;;;;;3.03;0.85;;;19.90;40.80;20.20;94668.00;;;;10424691;28;47213;-62
2021/10/26 17:34:15;;;;;;;1.73;0.90;;;19.90;41.00;20.10;94676.00;;;;10420762;28;47205;-62
2021/10/26 17:39:15;;;;;;;1.42;1.05;;;19.90;40.90;20.10;94661.00;;;;10421166;28;47023;-62
2021/10/26 17:44:17;;;;;;;3.65;1.30;;;19.80;40.90;20.10;94665.00;;;;10439425;28;46450;-62
2021/10/26 17:49:19;;;;;;;2.35;1.33;;;19.80;40.90;20.10;94672.00;;;;10437269;28;45235;-62
2021/10/26 17:54:20;;;;;;;4.95;1.60;;;19.80;40.90;20.10;94673.00;;;;10437936;28;45314;-62
2021/10/26 17:59:21;;;;;;;3.30;1.42;;;19.80;40.90;20.10;94666.00;;;;10437176;28;45315;-62
2021/10/26 18:04:21;;;;;;;3.58;1.58;;;19.80;40.70;20.10;94669.00;;;;10419728;28;47377;-62
2021/10/26 18:09:22;;;;;;;2.88;1.30;;;19.80;40.80;20.10;94658.00;;;;10436184;28;47315;-62
2021/10/26 18:14:25;;;;;;;2.25;1.25;;;19.80;40.80;20.10;94670.00;;;;10417691;28;48554;-59
2021/10/26 18:19:25;;;;;;;3.65;1.25;;;19.80;41.20;20.20;94662.00;;;;10435530;28;48129;-66
2021/10/26 18:24:28;;;;;;;4.35;1.25;;;19.90;41.40;20.20;94681.00;;;;10453975;28;47575;-66
2021/10/26 18:29:34;;;;;;;2.38;1.33;;;19.90;41.90;20.20;94680.00;;;;10436174;28;46032;-67
2021/10/26 18:34:35;;;;;;;;;;;19.90;42.30;20.30;94681.00;;;;10437027;28;45833;-67
2021/10/26 18:39:35;;;;;;;3.38;1.30;;;20.00;42.30;20.30;94698.00;;;;10448471;28;46994;-65
2021/10/26 18:44:42;;;;;;;4.25;1.20;;;20.00;42.10;20.30;94698.00;;;;10474517;28;45201;-64
2021/10/26 18:49:43;;;;;;;4.45;1.40;;;20.00;42.70;20.30;94689.00;;;;10474276;28;45336;-66
2021/10/26 18:54:45;;;;;;;3.63;1.20;;;20.00;42.80;20.30;94695.00;;;;10476850;28;45101;-65
2021/10/26 18:59:47;;;;;;;2.80;1.20;;;20.00;43.00;20.40;94691.00;;;;10476570;28;45484;-65
2021/10/26 19:04:47;;;;;;;2.42;1.10;;;20.10;43.00;20.40;94703.00;;;;10476215;28;46613;-66
2021/10/26 19:09:48;;;;;;;3.50;1.25;;;20.00;42.80;20.40;94700.00;;;;10472570;28;46457;-61
2021/10/26 19:14:50;;;;;;;2.13;1.20;;;20.10;43.00;20.40;94709.00;;;;10475071;28;45649;-65
2021/10/26 19:19:51;;;;;;;3.58;1.20;;;20.10;42.50;20.40;94700.00;;;;10479545;28;46929;-67
2021/10/26 19:24:52;;;;;;;3.53;1.10;;;20.10;42.20;20.40;94702.00;;;;10460704;28;47850;-67
2021/10/26 19:29:57;;;;;;;2.28;1.55;;;20.10;42.50;20.40;94691.00;;;;10476782;28;45322;-64
2021/10/26 19:34:58;;;;;;;2.88;1.20;;;20.10;42.40;20.40;94703.00;;;;10475431;28;45225;-62
2021/10/26 19:39:59;;;;;;;3.33;1.27;;;20.10;42.20;20.40;94721.00;;;;10475690;28;47293;-67
2021/10/26 19:45:00;;;;;;;2.28;1.00;;;20.10;42.20;20.40;94706.00;;;;10475170;28;47013;-60
2021/10/26 19:50:04;;;;;;;2.97;1.17;;;20.10;42.40;20.40;94692.00;;;;10457292;28;47960;-60
2021/10/26 19:55:06;;;;;;;3.30;1.20;;;20.10;41.80;20.30;94693.00;;;;10473344;28;46446;-60
2021/10/26 20:00:08;;;;;;;3.65;0.95;;;20.10;41.40;20.30;94694.00;;;;10474828;28;47358;-60
2021/10/26 20:05:08;;;;;;;2.78;1.30;;;20.10;41.20;20.30;94702.00;;;;10454162;28;45339;-67
2021/10/26 20:10:12;;;;;;;1.77;1.00;;;20.10;41.30;20.40;94704.00;;;;10433100;28;45593;-67
2021/10/26 20:15:13;;;;;;;2.30;1.00;;;20.10;41.50;20.40;94698.00;;;;10429849;28;46583;-68
2021/10/26 20:20:23;;;;;;;2.50;1.05;;;20.10;41.60;20.40;94691.00;;;;10432758;28;47219;-66
2021/10/26 20:25:24;;;;;;;2.40;1.02;;;20.10;41.70;20.40;94700.00;;;;10433697;28;46302;-66
2021/10/26 20:30:27;;;;;;;3.45;1.10;;;20.10;42.00;20.40;94707.00;;;;10415592;28;46818;-59
2021/10/26 20:35:28;;;;;;;4.40;1.05;;;20.10;41.90;20.40;94710.00;;;;10432307;28;45334;-59
2021/10/26 20:40:29;;;;;;;3.65;0.90;;;20.10;41.60;20.40;94685.00;;;;10432946;28;45556;-59
2021/10/26 20:45:29;;;;;;;1.60;0.85;;;20.10;41.30;20.30;94708.00;;;;10431753;28;47220;-60
2021/10/26 20:50:33;;;;;;;2.38;1.00;;;20.10;41.30;20.30;94694.00;;;;10432284;28;45794;-59
2021/10/26 20:55:34;;;;;;;1.65;0.90;;;20.10;41.30;20.30;94698.00;;;;10432892;28;45353;-59
2021/10/26 21:00:35;;;;;;;2.15;1.17;;;20.00;41.10;20.30;94692.00;;;;10432191;28;45297;-59
2021/10/26 21:05:35;;;;;;;1.38;0.85;;;20.00;41.20;20.30;94703.00;;;;10435422;28;48087;-59
2021/10/26 21:10:36;;;;;;;1.17;0.70;;;20.00;41.10;20.30;94700.00;;;;10439156;28;45662;-59
2021/10/26 21:15:37;;;;;;;1.27;0.73;;;20.00;41.00;20.30;94699.00;;;;10439870;28;46263;-59
2021/10/26 21:20:37;;;;;;;1.40;0.80;;;20.00;41.00;20.20;94695.00;;;;10439436;28;46404;-59
2021/10/26 21:25:38;;;;;;;1.00;0.70;;;20.00;40.90;20.20;94703.00;;;;10438236;28;45350;-60
2021/10/26 21:30:39;;;;;;;1.75;0.88;;;20.00;40.90;20.20;94708.00;;;;10437668;28;46710;-59
2021/10/26 21:35:44;;;;;;;2.60;0.85;;;19.90;40.80;20.20;94710.00;;;;10439224;28;45285;-59
2021/10/26 21:40:50;;;;;;;1.60;0.80;;;20.00;40.90;20.20;94706.00;;;;10437680;28;46256;-60
2021/10/26 21:45:50;;;;;;;1.98;1.00;;;19.90;40.90;20.20;94696.00;;;;10437815;28;45430;-59
2021/10/26 21:50:51;;;;;;;1.23;0.88;;;19.90;40.80;20.20;94697.00;;;;10427170;28;47052;-60
2021/10/26 21:55:52;;;;;;;1.13;0.60;;;19.90;40.70;20.20;94703.00;;;;10445195;28;47105;-60
2021/10/26 22:00:53;;;;;;;1.35;0.88;;;19.90;40.70;20.20;94710.00;;;;10496375;28;45167;-59
2021/10/26 22:05:55;;;;;;;1.35;0.70;;;19.90;40.70;20.20;94702.00;;;;10479068;28;47423;-60
2021/10/26 22:10:56;;;;;;;1.38;0.60;;;19.90;40.70;20.10;94696.00;;;;10495802;28;46081;-59
2021/10/26 22:16:03;;;;;;;1.48;0.73;;;19.90;40.70;20.10;94695.00;;;;10477472;28;47988;-60
2021/10/26 22:21:05;;;;;;;1.10;0.60;;;19.90;40.70;20.10;94704.00;;;;10479053;28;45448;-59
2021/10/26 22:26:08;;;;;;;0.90;0.70;;;19.80;41.30;20.10;94694.00;;;;10479060;28;46098;-59
2021/10/26 22:31:08;;;;;;;0.98;0.68;;;19.80;40.60;20.10;94696.00;;;;10495104;28;45140;-59
2021/10/26 22:36:12;;;;;;;1.65;0.70;;;19.80;40.60;20.10;94696.00;;;;10477091;28;46993;-60
2021/10/26 22:41:13;;;;;;;1.00;0.65;;;19.80;40.70;20.10;94699.00;;;;10477923;28;47062;-59
2021/10/26 22:46:14;;;;;;;0.88;0.50;;;19.80;40.60;20.10;94683.00;;;;10478482;28;46645;-60